Terminal Aerodrome Forecast
Issued by NWS Twin Cities, MN

Home | Current Version | Previous Version | Text Only | Print | Product List | Glossary Off
Versions: 1 2 3 4 5 6 7 8 9 10 11 12 13 14 15 16 17

077
FTUS43 KMPX 181348 AAA
TAFSTC
TAF AMD
KSTC 181348Z 1814/1912 VRB04KT 6SM -SHRA VCTS BKN010CB OVC060
     FM181700 VRB04KT 6SM -SHRA VCTS SCT020 OVC050CB
      TEMPO 1817/1821 4SM TS BKN025CB OVC040
     FM182100 02007KT P6SM VCSH BKN040 BKN080
     FM182300 04005KT P6SM SCT030 BKN070
     FM190200 04004KT P6SM FEW250=

USA.gov is the U.S. government's official web portal to all federal, state and local government web resources and services.